Time;durP1;ratioP1;P1;durP2;ratioP2;P2;SDS_P1;SDS_P2;PMS_P1;PMS_P2;Temp;Humidity;BMP_temperature;BMP_pressure;BME280_temperature;BME280_humidity;BME280_pressure;Samples;Min_cycle;Max_cycle;Signal;HPM_P1;HPM_P2
2023/03/21 00:01:37;;;;;;;4.77;3.57;;;;;;;13.72;53.80;99014.00;7079144;28;20225;-78
2023/03/21 00:04:59;;;;;;;4.97;3.77;;;;;;;13.89;54.33;99014.28;7079477;28;20213;-78
2023/03/21 00:08:22;;;;;;;5.30;3.03;;;;;;;14.08;53.74;99016.84;7079155;28;20208;-76
2023/03/21 00:11:45;;;;;;;5.90;3.77;;;;;;;14.10;53.75;99000.34;7079092;28;20756;-77
2023/03/21 00:15:08;;;;;;;4.20;3.67;;;;;;;14.18;54.04;99000.06;7079648;28;20213;-77
2023/03/21 00:18:29;;;;;;;5.53;3.73;;;;;;;14.32;53.15;98999.75;7079676;28;20248;-78
2023/03/21 00:21:53;;;;;;;5.33;3.43;;;;;;;14.38;53.18;98993.41;7078004;28;20260;-74
2023/03/21 00:25:14;;;;;;;5.30;3.50;;;;;;;14.08;53.83;99003.28;7079947;28;20199;-76
2023/03/21 00:28:38;;;;;;;3.63;3.23;;;;;;;13.18;55.08;98977.72;7079427;27;20315;-77
2023/03/21 00:31:59;;;;;;;3.80;3.50;;;;;;;13.57;55.24;98996.41;7083572;27;20637;-79
2023/03/21 00:35:21;;;;;;;5.27;3.90;;;;;;;13.20;56.13;98997.25;7085236;27;20236;-78
2023/03/21 00:38:42;;;;;;;3.63;3.33;;;;;;;13.67;54.99;98992.16;7084191;27;20197;-78
2023/03/21 00:42:04;;;;;;;3.63;3.33;;;;;;;13.54;54.98;98996.84;7083285;27;20265;-79
2023/03/21 00:45:27;;;;;;;5.27;4.07;;;;;;;13.58;55.51;98987.25;7083798;27;20237;-77
2023/03/21 00:48:48;;;;;;;5.73;3.23;;;;;;;13.90;54.44;98973.41;7084184;27;20779;-77
2023/03/21 00:52:10;;;;;;;5.77;3.43;;;;;;;13.99;53.87;98977.50;7082815;27;20228;-77
2023/03/21 00:55:33;;;;;;;4.77;3.77;;;;;;;13.89;54.10;98979.91;7084046;27;20574;-77
2023/03/21 00:58:55;;;;;;;5.10;3.20;;;;;;;14.06;53.54;98955.75;7083602;27;20207;-78
2023/03/21 01:02:21;;;;;;;7.63;3.30;;;;;;;13.76;54.07;98973.75;7082923;27;20766;-77
2023/03/21 01:09:24;;;;;;;4.27;3.50;;;;;;;13.69;54.77;98964.84;7083467;27;20204;-77
2023/03/21 01:12:46;;;;;;;3.83;3.53;;;;;;;13.92;54.27;98963.19;7083041;27;20563;-77
2023/03/21 01:16:09;;;;;;;5.03;3.60;;;;;;;13.82;53.89;98962.88;7083509;27;20207;-78
2023/03/21 01:19:32;;;;;;;7.23;3.60;;;;;;;13.93;53.70;98962.13;7082260;27;20208;-77
2023/03/21 01:22:54;;;;;;;3.77;3.37;;;;;;;13.82;54.27;98957.44;7081358;27;20308;-78
2023/03/21 01:26:15;;;;;;;8.47;4.03;;;;;;;13.98;53.84;98965.00;7083027;27;20602;-77
2023/03/21 01:29:37;;;;;;;3.43;3.07;;;;;;;14.15;52.64;98951.72;7081655;27;20228;-77
2023/03/21 01:32:58;;;;;;;3.80;3.50;;;;;;;13.90;53.35;98954.44;7082824;27;20708;-77
2023/03/21 01:36:23;;;;;;;3.90;3.60;;;;;;;14.02;53.63;98955.38;7083134;27;20198;-78
2023/03/21 01:39:45;;;;;;;4.30;3.27;;;;;;;13.94;53.61;98949.41;7082025;27;20254;-77
2023/03/21 01:43:19;;;;;;;3.27;2.97;;;;;;;13.66;54.31;98947.16;7082189;27;20231;-77
2023/03/21 01:46:43;;;;;;;5.77;4.03;;;;;;;13.52;55.08;98937.47;7082752;27;20248;-77
2023/03/21 01:50:05;;;;;;;5.00;3.73;;;;;;;13.71;55.12;98938.34;7081878;27;20250;-77
2023/03/21 01:53:31;;;;;;;5.70;5.00;;;;;;;13.40;55.37;98919.44;7081861;27;20227;-79
2023/03/21 01:56:55;;;;;;;6.53;5.20;;;;;;;13.74;55.16;98932.50;7082189;27;20192;-78
2023/03/21 02:00:17;;;;;;;3.67;3.37;;;;;;;13.85;54.67;98931.75;7081503;27;20562;-79
2023/03/21 02:03:49;;;;;;;4.33;3.47;;;;;;;14.05;53.90;98929.69;7082109;27;20364;-77
2023/03/21 02:07:13;;;;;;;4.17;3.67;;;;;;;14.07;53.73;98928.44;7082143;27;20191;-77
2023/03/21 02:10:36;;;;;;;3.90;3.60;;;;;;;13.75;53.77;98905.16;7081140;27;20273;-78
2023/03/21 02:13:58;;;;;;;4.40;3.10;;;;;;;13.81;54.41;98914.31;7081943;27;20654;-77
2023/03/21 02:17:25;;;;;;;3.60;3.10;;;;;;;14.03;53.80;98923.66;7081733;27;20203;-78
2023/03/21 02:21:09;;;;;;;3.33;3.03;;;;;;;13.76;53.94;98917.66;7080989;27;20464;-78
2023/03/21 02:24:53;;;;;;;3.87;3.47;;;;;;;13.67;55.07;98918.16;7080851;27;20640;-77
2023/03/21 02:28:19;;;;;;;4.90;3.27;;;;;;;13.51;54.79;98918.75;7081138;27;20199;-77
2023/03/21 02:31:42;;;;;;;5.77;3.10;;;;;;;13.80;54.48;98918.88;7080610;27;20228;-77
2023/03/21 02:35:22;;;;;;;4.27;3.30;;;;;;;13.80;54.80;98918.88;7081379;27;20205;-78
2023/03/21 02:38:49;;;;;;;4.17;3.20;;;;;;;13.76;54.88;98922.28;7081194;27;20602;-77
2023/03/21 02:42:16;;;;;;;3.23;3.00;;;;;;;13.82;54.76;98911.38;7080033;27;20283;-79
2023/03/21 02:45:40;;;;;;;3.43;3.03;;;;;;;14.22;53.27;98911.81;7081019;27;20191;-79
2023/03/21 02:49:07;;;;;;;3.57;3.27;;;;;;;14.07;53.28;98911.31;7080227;27;20204;-76
2023/03/21 02:52:32;;;;;;;3.97;3.03;;;;;;;14.18;53.27;98899.72;7079155;27;20235;-77
2023/03/21 02:55:55;;;;;;;3.53;3.23;;;;;;;14.16;53.20;98905.38;7080338;27;20197;-78
2023/03/21 02:59:17;;;;;;;3.83;3.17;;;;;;;14.19;53.29;98906.84;7080590;27;20200;-78
2023/03/21 03:02:40;;;;;;;5.70;3.00;;;;;;;14.19;53.11;98898.69;7079327;27;20216;-78
2023/03/21 03:06:03;;;;;;;3.40;3.10;;;;;;;14.14;53.41;98893.09;7080122;27;20294;-77
2023/03/21 03:09:31;;;;;;;3.20;2.90;;;;;;;13.88;53.95;98883.38;7079934;27;20319;-77
2023/03/21 03:13:03;;;;;;;3.53;3.20;;;;;;;13.67;54.79;98891.06;7079881;27;20222;-78
2023/03/21 03:16:28;;;;;;;4.00;3.60;;;;;;;13.71;55.20;98892.28;7080351;27;20187;-77
2023/03/21 03:20:02;;;;;;;5.00;3.20;;;;;;;13.92;54.77;98890.00;7079080;27;20207;-77
2023/03/21 03:23:28;;;;;;;4.07;3.20;;;;;;;14.05;54.24;98902.59;7063689;27;20224;-79
2023/03/21 03:26:53;;;;;;;3.20;2.90;;;;;;;13.26;55.58;98899.75;7051541;28;20292;-78
2023/03/21 03:30:16;;;;;;;3.80;3.10;;;;;;;13.66;55.14;98892.97;7050974;28;20228;-78
2023/03/21 03:33:40;;;;;;;4.50;3.70;;;;;;;13.33;56.08;98908.66;7051627;28;20559;-78
2023/03/21 03:37:05;;;;;;;3.83;3.43;;;;;;;13.49;56.05;98901.84;7051536;28;20903;-77
2023/03/21 03:40:29;;;;;;;4.30;3.37;;;;;;;13.81;55.32;98890.72;7051271;28;20192;-77
2023/03/21 03:43:53;;;;;;;3.23;3.03;;;;;;;13.80;54.86;98894.50;7051189;28;20228;-77
2023/03/21 03:47:22;;;;;;;3.97;3.00;;;;;;;13.83;54.82;98888.63;7051630;28;20233;-77
2023/03/21 03:50:48;;;;;;;4.93;3.87;;;;;;;13.79;54.90;98892.00;7050481;28;20905;-77
2023/03/21 03:54:12;;;;;;;3.57;3.27;;;;;;;13.33;55.87;98887.00;7051109;28;20192;-77
2023/03/21 03:57:34;;;;;;;3.70;3.20;;;;;;;13.65;55.66;98872.34;7051285;28;20284;-77
2023/03/21 04:00:56;;;;;;;3.53;3.23;;;;;;;13.56;55.53;98876.38;7050566;28;20204;-77
2023/03/21 04:04:21;;;;;;;3.50;3.10;;;;;;;13.53;55.44;98881.41;7051279;28;20212;-77
2023/03/21 04:07:43;;;;;;;5.17;3.67;;;;;;;13.54;55.85;98878.50;7056691;28;20555;-77
2023/03/21 04:11:05;;;;;;;3.67;3.37;;;;;;;13.91;54.60;98879.38;7055656;28;20236;-77
2023/03/21 04:14:26;;;;;;;3.47;3.17;;;;;;;13.64;55.01;98870.66;7056225;28;20209;-77
2023/03/21 04:17:48;;;;;;;4.90;3.20;;;;;;;13.53;55.58;98873.28;7055952;28;20216;-77
2023/03/21 04:21:12;;;;;;;4.07;3.50;;;;;;;13.57;55.65;98874.50;7055656;28;20226;-78
2023/03/21 04:24:36;;;;;;;3.53;3.23;;;;;;;13.57;55.79;98875.31;7054712;28;20578;-78
2023/03/21 04:27:57;;;;;;;5.10;3.43;;;;;;;13.53;55.62;98873.28;7056074;28;20559;-78
2023/03/21 04:31:19;;;;;;;4.80;4.30;;;;;;;13.79;54.68;98860.31;7055467;28;20239;-77
2023/03/21 04:34:40;;;;;;;6.60;3.50;;;;;;;13.67;55.37;98874.81;7055964;28;20201;-77
2023/03/21 04:38:03;;;;;;;4.17;3.50;;;;;;;13.66;55.10;98875.88;7055862;28;20204;-78
2023/03/21 04:41:25;;;;;;;3.33;3.00;;;;;;;13.71;55.42;98874.16;7055244;28;20689;-77
2023/03/21 04:44:47;;;;;;;3.67;3.37;;;;;;;13.44;55.21;98864.63;7055826;28;20261;-77
2023/03/21 04:48:09;;;;;;;3.50;3.20;;;;;;;13.59;55.12;98854.28;7055403;28;20277;-78
2023/03/21 04:51:30;;;;;;;4.17;3.40;;;;;;;13.63;54.54;98858.19;7054170;28;20228;-78
2023/03/21 04:54:53;;;;;;;5.47;3.47;;;;;;;13.35;55.66;98876.78;7055649;28;20572;-78
2023/03/21 04:58:15;;;;;;;4.37;3.43;;;;;;;13.47;56.04;98874.19;7055101;28;20205;-78
2023/03/21 05:01:37;;;;;;;9.37;3.60;;;;;;;13.68;55.29;98863.75;7054243;28;20608;-78
2023/03/21 05:04:58;;;;;;;4.03;3.63;;;;;;;13.85;54.02;98856.72;7054863;28;20288;-78
2023/03/21 05:08:20;;;;;;;4.00;3.40;;;;;;;13.64;54.50;98859.84;7054651;28;20667;-78
2023/03/21 05:11:43;;;;;;;3.70;3.40;;;;;;;13.43;55.03;98864.81;7053598;28;20365;-78
2023/03/21 05:15:05;;;;;;;4.63;3.40;;;;;;;12.85;57.07;98875.03;7054473;28;20260;-78
2023/03/21 05:18:27;;;;;;;3.80;3.43;;;;;;;12.99;56.83;98873.09;7054130;28;20232;-78
2023/03/21 05:21:49;;;;;;;3.97;3.53;;;;;;;13.13;57.33;98870.09;7052027;28;20228;-78
2023/03/21 05:25:11;;;;;;;4.77;4.20;;;;;;;13.16;56.99;98879.66;7054483;28;20345;-78
2023/03/21 05:28:35;;;;;;;5.70;4.23;;;;;;;13.06;57.14;98869.31;7055075;28;20215;-83
2023/03/21 05:31:57;;;;;;;3.93;3.53;;;;;;;13.08;57.05;98875.31;7055885;28;20592;-80
2023/03/21 05:35:19;;;;;;;4.57;3.67;;;;;;;12.82;57.90;98880.03;7054544;28;20639;-77
2023/03/21 05:38:44;;;;;;;4.43;3.80;;;;;;;13.07;57.06;98880.94;7062794;27;20680;-78
2023/03/21 05:42:05;;;;;;;4.07;3.67;;;;;;;13.17;57.02;98884.00;7053292;27;20221;-78
2023/03/21 05:45:28;;;;;;;4.83;3.77;;;;;;;13.48;56.19;98892.09;7055160;28;20253;-78
2023/03/21 05:48:50;;;;;;;3.77;3.40;;;;;;;13.64;55.36;98886.13;7053939;28;20270;-77
2023/03/21 05:52:12;;;;;;;3.47;3.27;;;;;;;13.61;55.64;98875.69;7055845;28;20267;-82
2023/03/21 05:55:34;;;;;;;5.07;3.90;;;;;;;13.24;56.27;98869.38;7085757;27;20290;-78
2023/03/21 05:58:55;;;;;;;4.40;4.00;;;;;;;13.29;56.59;98893.09;7076522;27;20638;-78
2023/03/21 06:02:18;;;;;;;4.73;3.50;;;;;;;13.31;56.58;98885.56;7072606;27;20275;-78
2023/03/21 06:05:39;;;;;;;4.57;4.10;;;;;;;13.18;56.34;98845.91;7081045;27;20248;-78
2023/03/21 06:09:01;;;;;;;3.97;3.67;;;;;;;13.51;56.17;98889.75;7056971;27;20264;-78
2023/03/21 06:12:22;;;;;;;4.20;3.53;;;;;;;13.55;55.97;98890.13;7051464;28;20370;-78
2023/03/21 06:15:44;;;;;;;3.60;3.30;;;;;;;13.40;56.19;98887.75;7063754;27;20199;-78
2023/03/21 06:19:07;;;;;;;6.03;3.93;;;;;;;13.74;55.45;98876.41;7080809;27;20265;-78
2023/03/21 06:22:28;;;;;;;4.23;3.57;;;;;;;13.56;55.31;98892.63;7079432;27;20315;-78
2023/03/21 06:25:50;;;;;;;5.27;3.70;;;;;;;13.77;55.29;98870.56;7080797;27;20263;-78
2023/03/21 06:29:11;;;;;;;4.03;3.73;;;;;;;13.89;55.23;98878.78;7078973;27;20298;-78
2023/03/21 06:32:33;;;;;;;4.03;3.50;;;;;;;14.19;54.17;98885.16;7079120;27;20236;-78
2023/03/21 06:35:57;;;;;;;5.03;3.73;;;;;;;14.05;54.30;98884.44;7073899;27;20679;-80
2023/03/21 06:39:19;;;;;;;4.00;3.70;;;;;;;14.04;54.29;98874.63;7081541;27;20200;-78
2023/03/21 06:42:40;;;;;;;4.37;3.23;;;;;;;14.07;55.05;98881.50;7082148;27;20224;-79
2023/03/21 06:46:02;;;;;;;4.70;3.30;;;;;;;14.07;54.16;98854.38;7081417;27;20207;-79
2023/03/21 06:49:24;;;;;;;5.10;4.30;;;;;;;14.19;54.11;98852.59;7080178;27;20598;-79
2023/03/21 06:52:48;;;;;;;5.87;4.27;;;;;;;14.64;53.25;98875.63;7079057;27;20236;-79
2023/03/21 06:56:11;;;;;;;4.33;3.93;;;;;;;14.95;52.50;98878.09;7080332;27;20228;-79
2023/03/21 06:59:32;;;;;;;6.20;4.23;;;;;;;15.15;51.70;98881.38;7079068;27;20354;-80
2023/03/21 07:02:54;;;;;;;4.33;3.93;;;;;;;15.17;51.62;98881.94;7079669;27;20691;-78
2023/03/21 07:06:15;;;;;;;6.03;3.90;;;;;;;15.52;49.56;98883.69;7080091;27;20209;-81
2023/03/21 07:09:38;;;;;;;4.37;3.60;;;;;;;15.61;49.49;98876.00;7080094;27;20201;-78
2023/03/21 07:13:00;;;;;;;4.30;3.80;;;;;;;15.88;48.54;98878.06;7080054;27;20285;-80
2023/03/21 07:16:21;;;;;;;18.43;12.70;;;;;;;16.02;49.08;98873.19;7079981;27;20634;-77
2023/03/21 07:19:43;;;;;;;4.43;3.97;;;;;;;16.23;47.62;98880.72;7078854;27;20324;-77
2023/03/21 07:23:04;;;;;;;3.97;3.03;;;;;;;15.82;46.84;98864.56;7079597;27;20701;-79
2023/03/21 07:26:28;;;;;;;4.10;3.70;;;;;;;15.96;46.42;98839.63;7079969;27;20629;-79
2023/03/21 07:29:49;;;;;;;3.87;3.53;;;;;;;16.38;46.22;98857.41;7079150;28;20207;-78
2023/03/21 07:33:11;;;;;;;3.80;3.50;;;;;;;16.55;46.11;98861.03;7079050;28;20234;-81
2023/03/21 07:36:32;;;;;;;6.20;3.63;;;;;;;16.46;46.31;98858.94;7079600;28;20281;-77
2023/03/21 07:39:54;;;;;;;3.67;3.23;;;;;;;16.87;45.42;98856.75;7081898;27;20261;-76
2023/03/21 07:43:17;;;;;;;3.60;3.27;;;;;;;17.00;44.25;98863.81;7084534;27;20285;-76
2023/03/21 07:46:39;;;;;;;4.13;3.33;;;;;;;17.03;44.61;98863.31;7085203;27;20281;-77
2023/03/21 07:50:03;;;;;;;4.20;3.17;;;;;;;16.87;44.60;98864.13;7082970;27;21086;-77
2023/03/21 07:53:24;;;;;;;3.40;3.10;;;;;;;16.55;44.70;98877.38;7084337;27;20298;-76
2023/03/21 07:56:46;;;;;;;4.10;3.17;;;;;;;17.06;44.81;98874.56;7084293;27;20606;-76
2023/03/21 08:00:11;;;;;;;3.40;3.10;;;;;;;17.51;43.56;98871.84;7084167;27;20275;-78
2023/03/21 08:03:33;;;;;;;4.83;3.43;;;;;;;17.69;42.81;98860.69;7084233;27;20272;-77
2023/03/21 08:06:56;;;;;;;4.10;3.03;;;;;;;18.22;41.29;98861.72;7066158;27;20201;-77
2023/03/21 08:10:18;;;;;;;3.10;2.77;;;;;;;18.80;40.77;98872.88;7055328;28;20204;-76
2023/03/21 08:13:40;;;;;;;2.80;2.60;;;;;;;19.22;39.57;98856.69;7056128;28;20724;-78
2023/03/21 08:17:03;;;;;;;3.77;3.30;;;;;;;18.84;38.43;98862.25;7055938;28;20646;-77
2023/03/21 08:20:24;;;;;;;4.87;3.33;;;;;;;18.24;39.93;98864.22;7055573;28;20204;-76
2023/03/21 08:23:46;;;;;;;3.23;2.77;;;;;;;16.83;42.50;98862.94;7071553;27;20223;-83
2023/03/21 08:27:07;;;;;;;3.40;3.10;;;;;;;18.48;41.03;98860.19;7083610;27;20279;-76
2023/03/21 08:30:29;;;;;;;3.20;2.90;;;;;;;18.67;39.26;98850.59;7080306;27;20204;-78
2023/03/21 08:33:53;;;;;;;3.60;2.77;;;;;;;18.29;40.32;98834.25;7082776;27;20644;-76
2023/03/21 08:37:15;;;;;;;3.90;2.70;;;;;;;18.73;40.10;98844.09;7082610;27;20299;-77
2023/03/21 08:40:36;;;;;;;3.27;2.97;;;;;;;19.09;38.43;98838.75;7082306;27;20199;-76
2023/03/21 08:43:58;;;;;;;4.00;2.80;;;;;;;19.87;37.93;98835.34;7082410;27;20352;-76
2023/03/21 08:47:20;;;;;;;3.77;2.67;;;;;;;19.83;36.53;98837.78;7081987;27;20264;-78
2023/03/21 08:50:43;;;;;;;4.40;2.77;;;;;;;20.28;36.60;98838.06;7054747;27;20220;-78
2023/03/21 08:54:05;;;;;;;3.07;2.43;;;;;;;19.95;37.14;98821.97;7055091;28;20197;-76
2023/03/21 08:57:26;;;;;;;3.20;2.60;;;;;;;20.16;37.00;98815.53;7062972;27;20676;-76
2023/03/21 09:00:48;;;;;;;4.30;3.10;;;;;;;19.71;37.42;98817.16;7082399;27;20257;-77
2023/03/21 09:04:10;;;;;;;2.90;2.60;;;;;;;18.65;38.65;98829.00;7082741;27;20244;-76
2023/03/21 09:07:35;;;;;;;3.20;2.90;;;;;;;20.06;37.41;98815.50;7083263;27;20208;-76
2023/03/21 09:10:56;;;;;;;3.23;2.63;;;;;;;20.34;36.02;98812.34;7082262;27;20324;-77
2023/03/21 09:14:18;;;;;;;3.67;2.47;;;;;;;20.09;37.32;98817.69;7082831;27;20748;-76
2023/03/21 09:17:41;;;;;;;3.17;2.87;;;;;;;20.02;36.91;98822.56;7056809;27;20420;-76
2023/03/21 09:21:11;;;;;;;3.57;2.60;;;;;;;20.67;36.11;98808.34;7073068;27;20221;-77
2023/03/21 09:24:34;;;;;;;3.17;2.67;;;;;;;20.35;36.82;98821.38;7082450;27;20212;-77
2023/03/21 09:27:56;;;;;;;4.80;2.70;;;;;;;20.32;36.19;98816.44;7082377;27;20212;-76
2023/03/21 09:31:21;;;;;;;2.87;2.60;;;;;;;21.36;33.20;98816.72;7081333;27;20227;-77
2023/03/21 09:34:43;;;;;;;2.60;2.40;;;;;;;21.40;32.64;98819.75;7080019;27;20563;-77
2023/03/21 09:38:04;;;;;;;2.73;2.50;;;;;;;21.45;34.71;98817.84;7079480;27;20577;-77
2023/03/21 09:41:37;;;;;;;3.47;2.80;;;;;;;21.15;32.56;98789.56;7080947;27;20222;-77
2023/03/21 09:45:06;;;;;;;2.50;2.30;;;;;;;20.72;33.29;98811.94;7082511;27;20266;-79
2023/03/21 09:48:36;;;;;;;2.47;2.27;;;;;;;21.70;32.84;98800.53;7082483;27;20190;-80
2023/03/21 09:51:59;;;;;;;2.60;2.40;;;;;;;22.33;30.83;98794.34;7084404;27;20693;-79
2023/03/21 09:55:25;;;;;;;3.60;2.90;;;;;;;21.54;32.06;98798.91;7083446;27;20350;-77
2023/03/21 09:58:51;;;;;;;2.60;2.30;;;;;;;20.87;30.66;98802.94;7082130;27;20261;-79
2023/03/21 10:02:21;;;;;;;2.37;2.10;;;;;;;21.75;31.91;98767.59;7080267;27;20689;-80
2023/03/21 10:05:45;;;;;;;2.00;1.87;;;;;;;22.35;29.66;98784.72;7053493;27;20569;-78
2023/03/21 10:09:10;;;;;;;3.60;1.93;;;;;;;21.45;30.50;98786.81;7054420;28;20603;-77
2023/03/21 10:12:31;;;;;;;2.83;2.10;;;;;;;21.77;30.35;98773.66;7055185;28;20237;-77
2023/03/21 10:15:57;;;;;;;2.00;1.90;;;;;;;21.69;30.99;98780.53;7056957;28;20267;-79
2023/03/21 10:19:20;;;;;;;3.77;2.50;;;;;;;21.79;30.59;98774.19;7054964;28;20643;-78
2023/03/21 10:22:42;;;;;;;2.20;2.00;;;;;;;22.87;30.69;98774.03;7052575;28;20310;-78
2023/03/21 10:26:06;;;;;;;1.90;1.80;;;;;;;22.52;30.69;98745.91;7052501;28;20207;-79
2023/03/21 10:29:30;;;;;;;2.20;2.00;;;;;;;22.84;29.14;98760.03;7076592;27;20198;-78
2023/03/21 10:32:55;;;;;;;1.83;1.73;;;;;;;23.11;28.16;98752.97;7083201;27;20598;-79
2023/03/21 10:36:20;;;;;;;2.90;2.53;;;;;;;22.18;29.86;98750.47;7081716;27;20715;-78
2023/03/21 10:39:42;;;;;;;2.00;1.90;;;;;;;22.14;29.45;98750.19;7079265;27;20260;-79
2023/03/21 10:43:32;;;;;;;2.73;2.20;;;;;;;22.53;30.27;98742.09;7080504;27;20221;-77
2023/03/21 10:46:55;;;;;;;2.43;2.23;;;;;;;23.51;28.14;98735.31;7080738;27;20199;-79
2023/03/21 10:50:24;;;;;;;4.00;2.27;;;;;;;22.66;28.95;98745.00;7080515;27;20201;-78
2023/03/21 10:53:48;;;;;;;2.73;2.30;;;;;;;23.14;28.31;98735.06;7066196;27;20695;-77
2023/03/21 10:57:11;;;;;;;2.20;1.80;;;;;;;23.91;26.50;98744.00;7079701;27;20296;-77
2023/03/21 11:00:36;;;;;;;2.60;1.87;;;;;;;23.56;26.45;98735.25;7055543;27;20287;-78
2023/03/21 11:04:00;;;;;;;3.03;2.40;;;;;;;23.50;27.87;98736.41;7073444;27;20222;-78
2023/03/21 11:07:24;;;;;;;2.40;2.20;;;;;;;22.67;29.20;98735.66;7076161;27;20689;-78
2023/03/21 11:10:53;;;;;;;2.03;1.83;;;;;;;23.13;29.06;98736.97;7059166;27;20210;-78
2023/03/21 11:14:32;;;;;;;5.40;2.03;;;;;;;23.00;29.25;98740.38;7051739;28;20232;-78
2023/03/21 11:17:53;;;;;;;1.90;1.80;;;;;;;22.75;28.60;98737.81;7051476;28;20200;-78
2023/03/21 11:21:15;;;;;;;3.80;2.17;;;;;;;22.25;30.18;98732.56;7050236;28;20285;-78
2023/03/21 11:24:39;;;;;;;3.00;2.23;;;;;;;22.18;29.28;98723.81;7050991;28;20915;-78
2023/03/21 11:28:06;;;;;;;1.97;1.70;;;;;;;23.11;27.86;98713.63;7050255;28;20291;-78
2023/03/21 11:31:38;;;;;;;2.07;1.73;;;;;;;22.69;28.49;98727.13;7049372;28;20238;-79
2023/03/21 11:35:02;;;;;;;2.70;1.63;;;;;;;22.53;29.53;98712.66;7051395;28;20206;-82
2023/03/21 11:38:26;;;;;;;3.80;2.30;;;;;;;22.40;30.13;98724.25;7051079;28;20218;-79
2023/03/21 11:41:51;;;;;;;2.40;2.20;;;;;;;22.71;30.14;98716.69;7073646;28;20588;-82
2023/03/21 11:45:15;;;;;;;2.70;2.50;;;;;;;22.09;31.04;98709.03;7067043;28;20206;-78
2023/03/21 11:48:39;;;;;;;2.70;2.30;;;;;;;21.92;30.85;98705.81;7050836;28;20293;-79
2023/03/21 11:52:13;;;;;;;2.73;2.37;;;;;;;21.93;31.21;98692.88;7049612;28;20237;-79
2023/03/21 11:55:41;;;;;;;2.40;2.20;;;;;;;22.44;30.15;98697.91;7054518;28;20656;-78
2023/03/21 11:59:21;;;;;;;2.10;1.90;;;;;;;23.00;30.16;98692.81;7050783;28;20678;-78
2023/03/21 12:03:11;;;;;;;3.07;1.90;;;;;;;22.95;29.52;98679.91;7049979;28;20306;-79
2023/03/21 12:06:36;;;;;;;3.20;2.00;;;;;;;22.18;30.01;98688.09;7043200;28;20205;-79
2023/03/21 12:10:10;;;;;;;5.33;2.87;;;;;;;22.34;30.36;98667.69;7049631;28;20205;-79
2023/03/21 12:13:41;;;;;;;2.30;1.80;;;;;;;22.72;29.39;98666.09;7051076;28;20234;-79
2023/03/21 12:17:12;;;;;;;2.23;1.80;;;;;;;22.86;29.53;98659.66;7072961;28;20206;-78
2023/03/21 12:20:41;;;;;;;2.83;2.00;;;;;;;22.50;30.22;98654.72;7078529;28;20240;-79
2023/03/21 12:24:06;;;;;;;2.37;2.07;;;;;;;22.55;30.42;98640.94;7078496;28;20211;-79
2023/03/21 12:27:37;;;;;;;1.73;1.63;;;;;;;22.80;30.28;98648.97;7081962;27;20253;-79
2023/03/21 12:31:02;;;;;;;2.90;1.73;;;;;;;22.38;30.05;98644.06;7059064;27;20575;-79
2023/03/21 12:34:35;;;;;;;1.90;1.80;;;;;;;22.42;29.53;98623.13;7066050;27;20286;-79
2023/03/21 12:38:01;;;;;;;3.10;2.10;;;;;;;22.79;28.85;98617.09;7078847;27;20616;-79
2023/03/21 12:41:26;;;;;;;2.20;1.80;;;;;;;22.52;29.68;98623.09;7087899;27;20236;-79
2023/03/21 12:44:50;;;;;;;1.97;1.70;;;;;;;22.67;29.90;98624.91;7097458;27;20213;-80
2023/03/21 12:48:17;;;;;;;1.97;1.30;;;;;;;22.84;28.91;98615.13;7097977;27;20214;-79
2023/03/21 12:51:43;;;;;;;2.80;1.70;;;;;;;22.35;30.12;98627.28;7087184;27;20368;-79
2023/03/21 12:55:10;;;;;;;2.27;1.50;;;;;;;22.94;29.59;98626.03;7081177;27;20305;-79
2023/03/21 12:58:42;;;;;;;3.20;2.17;;;;;;;22.70;30.62;98616.91;7082700;27;20253;-80
2023/03/21 13:02:16;;;;;;;2.53;2.10;;;;;;;21.53;32.30;98619.72;7081956;27;20365;-79
2023/03/21 13:05:40;;;;;;;4.17;2.20;;;;;;;21.80;31.99;98605.66;7082955;27;20285;-79
2023/03/21 13:09:07;;;;;;;2.83;2.03;;;;;;;22.05;32.76;98624.72;7082449;27;20968;-79
2023/03/21 13:12:38;;;;;;;3.23;2.13;;;;;;;22.00;32.05;98614.59;7080122;27;20226;-79
2023/03/21 13:16:05;;;;;;;3.07;2.40;;;;;;;22.14;31.65;98601.88;7081920;27;20344;-79
2023/03/21 13:19:31;;;;;;;2.67;2.30;;;;;;;22.04;31.75;98603.88;7083180;27;20722;-79
2023/03/21 13:22:52;;;;;;;4.33;2.60;;;;;;;21.83;32.63;98608.66;7082818;27;20232;-79
2023/03/21 13:26:15;;;;;;;3.73;2.43;;;;;;;22.43;31.93;98607.50;7082991;27;20202;-79
2023/03/21 13:29:44;;;;;;;2.47;2.20;;;;;;;21.57;32.26;98598.88;7060863;27;20282;-78
2023/03/21 13:33:07;;;;;;;2.77;2.43;;;;;;;22.40;31.57;98597.88;7074741;27;20585;-78
2023/03/21 13:36:32;;;;;;;3.07;2.20;;;;;;;21.53;31.86;98595.03;7069074;27;20267;-80
2023/03/21 13:40:00;;;;;;;2.67;2.10;;;;;;;21.82;32.74;98576.00;7080400;27;20201;-78
2023/03/21 13:43:42;;;;;;;2.30;2.10;;;;;;;21.91;32.00;98582.53;7069821;27;20774;-80
2023/03/21 13:47:05;;;;;;;3.23;2.23;;;;;;;22.37;31.91;98590.19;7071510;27;20219;-78
2023/03/21 13:50:30;;;;;;;2.40;2.20;;;;;;;22.21;30.40;98566.72;7079813;27;20633;-79
2023/03/21 13:54:01;;;;;;;4.23;2.20;;;;;;;22.45;30.35;98575.91;7081460;27;20266;-78
2023/03/21 13:57:38;;;;;;;2.23;2.03;;;;;;;22.07;30.67;98553.91;7083454;27;20290;-79
2023/03/21 14:01:20;;;;;;;2.80;2.50;;;;;;;22.44;30.13;98576.16;7080444;27;20236;-79
2023/03/21 14:04:43;;;;;;;4.27;2.63;;;;;;;22.14;30.15;98568.13;7081782;27;20198;-79
2023/03/21 14:08:06;;;;;;;2.90;2.10;;;;;;;22.41;30.75;98572.03;7079300;27;20210;-78
2023/03/21 14:11:29;;;;;;;2.97;2.37;;;;;;;22.02;30.11;98560.22;7080640;27;20234;-78
2023/03/21 14:14:53;;;;;;;2.27;2.07;;;;;;;22.53;29.85;98577.22;7080868;27;20227;-78
2023/03/21 14:18:19;;;;;;;2.80;2.50;;;;;;;22.71;29.94;98566.31;7080814;27;20261;-78
2023/03/21 14:21:49;;;;;;;2.80;2.60;;;;;;;22.04;31.24;98568.19;7080635;27;20287;-78
2023/03/21 14:25:12;;;;;;;3.40;2.57;;;;;;;22.37;31.08;98561.91;7083647;27;20207;-80
2023/03/21 14:28:35;;;;;;;3.00;2.80;;;;;;;22.38;31.07;98558.06;7081029;27;20198;-78
2023/03/21 14:31:58;;;;;;;2.73;2.53;;;;;;;22.44;30.92;98552.28;7081416;27;20232;-79
2023/03/21 14:35:22;;;;;;;2.83;2.60;;;;;;;22.35;30.53;98540.22;7082118;27;20202;-78
2023/03/21 14:38:44;;;;;;;3.37;2.53;;;;;;;21.97;30.65;98541.06;7079948;27;20255;-78
2023/03/21 14:42:07;;;;;;;3.03;2.33;;;;;;;22.08;30.29;98548.09;7052142;28;20247;-78
2023/03/21 14:45:30;;;;;;;4.10;2.47;;;;;;;21.87;31.06;98534.78;7054088;28;20821;-80
2023/03/21 14:48:51;;;;;;;3.23;2.70;;;;;;;20.99;31.94;98537.63;7051594;28;20205;-79
2023/03/21 14:52:18;;;;;;;4.33;2.80;;;;;;;20.87;31.93;98528.88;7051397;28;20876;-79
2023/03/21 14:55:44;;;;;;;2.87;2.57;;;;;;;21.20;31.62;98510.69;7076387;27;20252;-79
2023/03/21 14:59:08;;;;;;;5.70;2.77;;;;;;;21.89;31.70;98530.66;7082558;27;20652;-79
2023/03/21 15:02:33;;;;;;;5.03;2.73;;;;;;;21.51;32.65;98536.06;7080916;27;20361;-78
2023/03/21 15:05:55;;;;;;;3.20;2.43;;;;;;;21.50;32.13;98535.25;7079507;27;20359;-78
2023/03/21 15:09:19;;;;;;;3.33;2.70;;;;;;;21.75;31.65;98526.09;7079869;27;20257;-79
2023/03/21 15:12:50;;;;;;;4.07;3.10;;;;;;;21.76;30.74;98512.09;7079299;27;20283;-79
2023/03/21 15:16:13;;;;;;;7.73;2.87;;;;;;;21.99;31.17;98527.03;7079880;27;20285;-79
2023/03/21 15:19:37;;;;;;;4.10;2.73;;;;;;;21.92;31.54;98532.84;7079408;27;20205;-80
2023/03/21 15:23:03;;;;;;;4.60;2.70;;;;;;;21.59;31.81;98525.31;7076645;27;20231;-79
2023/03/21 15:26:26;;;;;;;4.00;3.00;;;;;;;21.78;32.83;98515.34;7075149;27;20201;-80
2023/03/21 15:29:52;;;;;;;3.30;3.00;;;;;;;21.41;34.03;98519.63;7051150;28;20208;-79
2023/03/21 15:33:14;;;;;;;3.20;2.90;;;;;;;21.40;33.85;98528.97;7059087;28;20273;-79
2023/03/21 15:36:41;;;;;;;4.50;3.30;;;;;;;21.65;34.06;98526.13;7080745;28;20272;-79
2023/03/21 15:40:14;;;;;;;4.13;3.30;;;;;;;21.43;34.04;98511.97;7079060;28;20203;-79
2023/03/21 15:43:39;;;;;;;3.33;2.97;;;;;;;21.12;34.44;98531.56;7070971;28;20226;-78
2023/03/21 15:47:01;;;;;;;3.87;3.30;;;;;;;21.34;34.47;98530.94;7079272;28;20338;-79
2023/03/21 15:50:28;;;;;;;5.13;3.00;;;;;;;20.75;34.80;98520.94;7078521;28;20581;-79
2023/03/21 15:53:52;;;;;;;3.20;2.90;;;;;;;21.06;34.59;98535.41;7074329;28;20264;-79
2023/03/21 15:57:21;;;;;;;4.00;3.03;;;;;;;20.60;34.47;98529.19;7078855;28;20700;-79
2023/03/21 16:00:49;;;;;;;5.50;3.27;;;;;;;20.42;34.32;98518.78;7081934;27;20204;-80
2023/03/21 16:04:12;;;;;;;4.20;2.90;;;;;;;20.71;34.22;98540.94;7085130;27;20286;-79
2023/03/21 16:07:34;;;;;;;5.27;3.20;;;;;;;20.82;34.22;98526.13;7084732;27;20328;-79